createdAt,value
2018-04-22T00:01:05.368Z,14.17
2018-04-22T00:03:35.093Z,16.30
2018-04-22T00:06:03.378Z,16.67
2018-04-22T00:08:33.218Z,17.53
2018-04-22T00:11:02.434Z,17.17
2018-04-22T00:13:30.948Z,17.23
2018-04-22T00:16:01.598Z,15.23
2018-04-22T00:18:29.816Z,16.43
2018-04-22T00:20:57.927Z,19.30
2018-04-22T00:23:26.117Z,16.00
2018-04-22T00:25:54.673Z,17.27
2018-04-22T00:28:22.865Z,15.77
2018-04-22T00:30:51.036Z,16.07
2018-04-22T00:33:19.791Z,19.03
2018-04-22T00:35:49.013Z,16.30
2018-04-22T00:38:17.226Z,16.90
2018-04-22T00:40:45.750Z,16.50
2018-04-22T00:43:15.464Z,20.40
2018-04-22T00:45:44.506Z,19.33
2018-04-22T00:48:13.305Z,18.73
2018-04-22T00:50:41.794Z,16.77
2018-04-22T00:53:10.253Z,17.07
2018-04-22T00:55:39.316Z,16.60
2018-04-22T00:58:08.721Z,17.90
2018-04-22T01:00:37.792Z,15.30
2018-04-22T01:03:06.809Z,16.03
2018-04-22T01:05:36.187Z,14.47
2018-04-22T01:08:05.464Z,18.80
2018-04-22T01:10:33.838Z,21.47
2018-04-22T01:13:02.110Z,14.30
2018-04-22T01:15:30.596Z,16.87
2018-04-22T01:17:58.988Z,14.63
2018-04-22T01:20:27.469Z,14.10
2018-04-22T01:22:56.569Z,16.03
2018-04-22T01:25:24.869Z,14.90
2018-04-22T01:27:54.871Z,14.93
2018-04-22T01:30:23.151Z,15.83
2018-04-22T01:32:51.432Z,17.77
2018-04-22T01:35:19.997Z,15.43
2018-04-22T01:37:50.232Z,13.67
2018-04-22T01:40:19.534Z,16.27
2018-04-22T01:42:47.961Z,14.90
2018-04-22T01:45:16.176Z,15.60
2018-04-22T01:47:45.401Z,17.27
2018-04-22T01:50:13.955Z,15.87
2018-04-22T01:52:42.239Z,14.43
2018-04-22T01:55:11.368Z,14.60
2018-04-22T01:57:40.021Z,14.30
2018-04-22T02:00:08.498Z,17.53
2018-04-22T02:02:37.289Z,18.30
2018-04-22T02:05:06.437Z,14.87
2018-04-22T02:07:34.792Z,16.20
2018-04-22T02:10:03.000Z,18.37
2018-04-22T02:12:31.372Z,21.83
2018-04-22T02:14:59.863Z,15.33
2018-04-22T02:17:28.395Z,15.30
2018-04-22T02:19:56.581Z,17.10
2018-04-22T02:22:24.844Z,15.23
2018-04-22T02:24:53.122Z,17.93
2018-04-22T02:27:21.430Z,16.00
2018-04-22T02:29:50.235Z,17.53
2018-04-22T02:32:18.746Z,15.63
2018-04-22T02:34:47.126Z,18.63
2018-04-22T02:37:15.575Z,19.27
2018-04-22T02:39:44.727Z,15.70
2018-04-22T02:42:13.097Z,15.47
2018-04-22T02:44:41.546Z,16.47
2018-04-22T02:47:10.159Z,16.47
2018-04-22T02:49:38.546Z,17.77
2018-04-22T02:52:06.708Z,20.77
2018-04-22T02:54:36.140Z,20.70
2018-04-22T02:57:04.766Z,17.27
2018-04-22T02:59:33.787Z,22.60
2018-04-22T03:02:01.917Z,16.67
2018-04-22T03:04:30.369Z,20.17
2018-04-22T03:06:58.861Z,16.77
2018-04-22T03:09:27.752Z,16.60
2018-04-22T03:11:56.300Z,17.73
2018-04-22T03:14:24.818Z,16.93
2018-04-22T03:16:53.972Z,17.23
2018-04-22T03:19:22.169Z,17.70
2018-04-22T03:21:50.579Z,20.40
2018-04-22T03:24:19.033Z,18.10
2018-04-22T03:26:47.212Z,16.83
2018-04-22T03:29:15.693Z,17.83
2018-04-22T03:31:43.998Z,21.00
2018-04-22T03:34:13.177Z,24.50
2018-04-22T03:36:41.411Z,19.47
2018-04-22T03:39:09.722Z,23.20
2018-04-22T03:41:38.164Z,25.07
2018-04-22T03:44:06.473Z,24.63
2018-04-22T03:46:36.564Z,22.83
2018-04-22T03:49:05.153Z,21.83
2018-04-22T03:51:33.477Z,20.57
2018-04-22T03:54:02.548Z,21.40
2018-04-22T03:56:30.760Z,21.80
2018-04-22T03:59:00.062Z,22.27
2018-04-22T04:01:30.144Z,19.73
2018-04-22T04:03:58.496Z,21.67
2018-04-22T04:06:26.716Z,23.13
2018-04-22T04:08:55.026Z,19.17
2018-04-22T04:11:23.334Z,23.00
2018-04-22T04:13:51.737Z,25.53
2018-04-22T04:16:20.090Z,22.47
2018-04-22T04:21:03.818Z,20.63
2018-04-22T04:23:41.074Z,21.57
2018-04-22T04:26:22.079Z,19.30
2018-04-22T04:28:50.526Z,20.33
2018-04-22T04:31:18.762Z,19.60
2018-04-22T04:33:47.683Z,21.60
2018-04-22T04:36:17.002Z,19.80
2018-04-22T04:38:45.921Z,20.40
2018-04-22T04:41:17.619Z,20.10
2018-04-22T04:43:45.835Z,20.23
2018-04-22T04:46:16.335Z,19.93
2018-04-22T04:48:45.225Z,21.40
2018-04-22T04:51:14.274Z,21.97
2018-04-22T04:53:42.588Z,21.50
2018-04-22T04:56:11.488Z,20.20
2018-04-22T04:58:40.616Z,21.27
2018-04-22T05:01:08.877Z,20.53
2018-04-22T05:03:37.274Z,20.93
2018-04-22T05:06:05.496Z,19.97
2018-04-22T05:08:34.030Z,20.67
2018-04-22T05:11:02.636Z,18.67
2018-04-22T05:13:30.825Z,18.60
2018-04-22T05:16:00.538Z,18.77
2018-04-22T05:18:29.002Z,19.33
2018-04-22T05:20:58.509Z,18.47
2018-04-22T05:23:27.045Z,20.20
2018-04-22T05:25:55.571Z,19.37
2018-04-22T05:28:23.816Z,19.80
2018-04-22T05:30:51.989Z,18.93
2018-04-22T05:33:20.366Z,22.67
2018-04-22T05:35:48.601Z,21.47
2018-04-22T05:38:17.106Z,20.97
2018-04-22T05:40:45.268Z,21.83
2018-04-22T05:43:13.882Z,18.60
2018-04-22T05:45:42.122Z,18.90
2018-04-22T05:48:10.544Z,19.13
2018-04-22T05:50:39.748Z,20.80
2018-04-22T05:53:07.951Z,19.13
2018-04-22T05:55:36.101Z,21.30
2018-04-22T05:58:04.802Z,20.73
2018-04-22T06:00:33.086Z,20.43
2018-04-22T06:03:01.996Z,19.13
2018-04-22T06:05:32.697Z,22.07
2018-04-22T06:08:01.041Z,20.13
2018-04-22T06:10:29.337Z,21.53
2018-04-22T06:12:57.476Z,21.27
2018-04-22T06:15:25.920Z,19.33
2018-04-22T06:17:54.405Z,19.10
2018-04-22T06:20:23.513Z,21.07
2018-04-22T06:22:51.754Z,21.10
2018-04-22T06:25:20.185Z,23.33
2018-04-22T06:27:48.931Z,23.00
2018-04-22T06:30:17.260Z,22.37
2018-04-22T06:32:46.297Z,23.93
2018-04-22T06:35:15.163Z,20.87
2018-04-22T06:37:43.444Z,23.33
2018-04-22T06:40:11.697Z,21.27
2018-04-22T06:42:40.784Z,24.07
2018-04-22T06:45:09.297Z,21.23
2018-04-22T06:47:37.601Z,22.23
2018-04-22T06:50:06.045Z,21.70
2018-04-22T06:52:34.248Z,23.40
2018-04-22T06:55:04.263Z,21.73
2018-04-22T06:57:32.454Z,21.17
2018-04-22T07:00:02.171Z,20.23
2018-04-22T07:02:30.848Z,20.77
2018-04-22T07:04:59.149Z,21.40
2018-04-22T07:07:28.722Z,19.37
2018-04-22T07:09:57.066Z,19.10
2018-04-22T07:12:25.614Z,19.23
2018-04-22T07:14:54.150Z,19.43
2018-04-22T07:17:22.453Z,24.73
2018-04-22T07:19:50.995Z,19.90
2018-04-22T07:22:19.181Z,18.53
2018-04-22T07:24:47.636Z,23.33
2018-04-22T07:27:15.857Z,20.47
2018-04-22T07:29:45.248Z,18.00
2018-04-22T07:32:13.589Z,18.30
2018-04-22T07:34:41.930Z,17.23
2018-04-22T07:37:11.113Z,17.97
2018-04-22T07:39:39.392Z,24.03
2018-04-22T07:42:07.978Z,18.50
2018-04-22T07:44:36.961Z,16.87
2018-04-22T07:47:05.225Z,18.80
2018-04-22T07:49:33.297Z,18.97
2018-04-22T07:52:04.971Z,17.80
2018-04-22T07:54:33.985Z,20.40
2018-04-22T07:57:02.372Z,19.40
2018-04-22T07:59:31.213Z,18.70
2018-04-22T08:01:59.563Z,19.83
2018-04-22T08:04:27.981Z,19.83
2018-04-22T08:06:56.577Z,18.67
2018-04-22T08:09:25.969Z,19.03
2018-04-22T08:11:56.481Z,19.30
2018-04-22T08:14:26.166Z,18.53
2018-04-22T08:16:55.554Z,19.43
2018-04-22T08:19:23.883Z,20.27
2018-04-22T08:21:52.910Z,18.60
2018-04-22T08:24:21.417Z,19.40
2018-04-22T08:26:50.509Z,22.00
2018-04-22T08:29:19.233Z,20.27
2018-04-22T08:31:47.577Z,17.90
2018-04-22T08:34:17.055Z,18.90
2018-04-22T08:36:45.145Z,17.77
2018-04-22T08:39:14.098Z,19.23
2018-04-22T08:41:43.156Z,17.30
2018-04-22T08:44:11.310Z,20.53
2018-04-22T08:46:39.572Z,16.63
2018-04-22T08:49:07.869Z,16.00
2018-04-22T08:51:36.501Z,20.50
2018-04-22T08:54:05.533Z,18.30
2018-04-22T08:56:33.852Z,15.50
2018-04-22T08:59:03.585Z,15.43
2018-04-22T09:01:31.827Z,18.13
2018-04-22T09:04:02.658Z,15.67
2018-04-22T09:06:32.244Z,18.30
2018-04-22T09:09:01.075Z,15.67
2018-04-22T09:11:30.019Z,16.30
2018-04-22T09:13:58.796Z,17.03
2018-04-22T09:16:27.223Z,14.53
2018-04-22T09:18:55.592Z,14.03
2018-04-22T09:21:24.772Z,17.83
2018-04-22T09:23:54.875Z,14.23
2018-04-22T09:26:23.216Z,15.23
2018-04-22T09:28:51.354Z,16.10
2018-04-22T09:31:19.811Z,17.80
2018-04-22T09:33:48.223Z,18.17
2018-04-22T09:36:17.537Z,16.10
2018-04-22T09:38:46.546Z,13.83
2018-04-22T09:41:14.964Z,15.60
2018-04-22T09:43:43.511Z,14.90
2018-04-22T09:46:11.668Z,15.40
2018-04-22T09:48:41.980Z,14.30
2018-04-22T09:51:11.441Z,12.63
2018-04-22T09:53:39.723Z,14.67
2018-04-22T09:56:07.820Z,12.77
2018-04-22T09:58:36.603Z,13.10
2018-04-22T10:01:06.423Z,11.73
2018-04-22T10:03:35.673Z,11.03
2018-04-22T10:06:04.257Z,10.53
2018-04-22T10:08:32.400Z,12.67
2018-04-22T10:11:00.609Z,15.83
2018-04-22T10:13:29.804Z,11.40
2018-04-22T10:15:59.158Z,15.40
2018-04-22T10:18:28.202Z,10.80
2018-04-22T10:20:57.200Z,15.00
2018-04-22T10:23:25.605Z,14.03
2018-04-22T10:25:54.246Z,10.13
2018-04-22T10:28:22.316Z,11.67
2018-04-22T10:30:50.772Z,12.00
2018-04-22T10:33:19.197Z,12.43
2018-04-22T10:35:47.608Z,9.93
2018-04-22T10:38:16.569Z,15.70
2018-04-22T10:40:44.942Z,11.40
2018-04-22T10:43:13.373Z,11.97
2018-04-22T10:45:41.699Z,7.93
2018-04-22T10:48:10.078Z,9.97
2018-04-22T10:50:38.620Z,11.70
2018-04-22T10:53:07.787Z,9.80
2018-04-22T10:55:36.715Z,8.17
2018-04-22T10:58:05.127Z,7.53
2018-04-22T11:00:33.300Z,10.30
2018-04-22T11:03:01.686Z,8.73
2018-04-22T11:05:29.987Z,9.43
2018-04-22T11:07:59.085Z,7.10
2018-04-22T11:10:28.027Z,11.17
2018-04-22T11:12:56.313Z,10.83
2018-04-22T11:15:25.602Z,15.63
2018-04-22T11:17:54.851Z,7.87
2018-04-22T11:20:23.068Z,14.50
2018-04-22T11:22:51.651Z,7.13
2018-04-22T11:25:21.114Z,10.97
2018-04-22T11:27:49.358Z,9.80
2018-04-22T11:30:17.838Z,11.97
2018-04-22T11:32:47.862Z,9.13
2018-04-22T11:35:17.043Z,10.37
2018-04-22T11:37:45.241Z,9.77
2018-04-22T11:40:15.357Z,9.50
2018-04-22T11:42:43.714Z,6.83
2018-04-22T11:45:12.278Z,9.67
2018-04-22T11:47:40.825Z,9.13
2018-04-22T11:50:09.836Z,7.70
2018-04-22T11:52:38.105Z,10.10
2018-04-22T11:55:07.261Z,10.00
2018-04-22T11:57:35.721Z,9.57
2018-04-22T12:00:04.039Z,8.10
2018-04-22T12:02:33.351Z,8.87
2018-04-22T12:05:01.740Z,8.40
2018-04-22T12:07:29.932Z,6.87
2018-04-22T12:09:58.121Z,8.37
2018-04-22T12:12:26.452Z,8.77
2018-04-22T12:14:54.721Z,5.43
2018-04-22T12:17:24.204Z,7.50
2018-04-22T12:19:52.372Z,9.60
2018-04-22T12:22:20.585Z,7.63
2018-04-22T12:24:48.996Z,7.57
2018-04-22T12:27:17.386Z,6.10
2018-04-22T12:29:45.717Z,7.23
2018-04-22T12:32:15.021Z,7.00
2018-04-22T12:34:43.560Z,7.60
2018-04-22T12:37:11.739Z,7.27
2018-04-22T12:39:40.039Z,12.27
2018-04-22T12:42:09.454Z,6.60
2018-04-22T12:44:37.807Z,7.47
2018-04-22T12:47:06.927Z,7.40
2018-04-22T12:49:35.505Z,5.83
2018-04-22T12:52:03.884Z,5.33
2018-04-22T12:54:32.868Z,7.10
2018-04-22T12:57:01.483Z,8.50
2018-04-22T12:59:29.914Z,7.93
2018-04-22T13:01:58.226Z,8.57
2018-04-22T13:04:26.719Z,6.33
2018-04-22T13:06:55.157Z,9.13
2018-04-22T13:09:24.319Z,8.20
2018-04-22T13:11:53.322Z,6.37
2018-04-22T13:14:22.032Z,7.80
2018-04-22T13:16:50.979Z,9.67
2018-04-22T13:19:19.371Z,6.67
2018-04-22T13:21:47.809Z,6.53
2018-04-22T13:24:16.221Z,5.97
2018-04-22T13:26:44.934Z,6.87
2018-04-22T13:29:14.079Z,6.40
2018-04-22T13:31:42.819Z,9.53
2018-04-22T13:34:11.168Z,5.87
2018-04-22T13:36:39.602Z,8.87
2018-04-22T13:39:07.932Z,7.37
2018-04-22T13:41:36.226Z,10.20
2018-04-22T13:44:05.710Z,8.03
2018-04-22T13:46:35.157Z,6.23
2018-04-22T13:49:03.295Z,8.70
2018-04-22T13:51:31.683Z,6.37
2018-04-22T13:54:00.553Z,7.23
2018-04-22T13:56:29.238Z,6.07
2018-04-22T13:59:01.197Z,8.13
2018-04-22T14:01:30.426Z,10.53
2018-04-22T14:03:59.572Z,10.10
2018-04-22T14:06:28.249Z,9.23
2018-04-22T14:08:56.667Z,7.70
2018-04-22T14:11:25.066Z,9.67
2018-04-22T14:13:55.212Z,11.07
2018-04-22T14:16:24.526Z,9.83
2018-04-22T14:18:52.981Z,9.73
2018-04-22T14:21:21.471Z,11.13
2018-04-22T14:23:50.029Z,10.80
2018-04-22T14:26:19.062Z,8.50
2018-04-22T14:28:47.621Z,7.73
2018-04-22T14:31:16.731Z,6.07
2018-04-22T14:33:45.685Z,8.57
2018-04-22T14:36:15.623Z,10.77
2018-04-22T14:38:43.965Z,11.33
2018-04-22T14:41:12.342Z,8.37
2018-04-22T14:43:46.657Z,9.40
2018-04-22T14:46:15.933Z,8.97
2018-04-22T14:48:53.535Z,7.73
2018-04-22T14:51:21.894Z,8.47
2018-04-22T14:53:50.913Z,8.23
2018-04-22T14:56:19.277Z,6.23
2018-04-22T14:58:47.758Z,9.40
2018-04-22T15:01:17.259Z,6.83
2018-04-22T15:03:46.200Z,9.20
2018-04-22T15:06:16.295Z,9.00
2018-04-22T15:08:44.668Z,7.13
2018-04-22T15:11:13.223Z,8.07
2018-04-22T15:13:42.038Z,8.27
2018-04-22T15:16:10.870Z,8.40
2018-04-22T15:18:39.520Z,8.07
2018-04-22T15:21:08.709Z,11.23
2018-04-22T15:23:37.979Z,7.67
2018-04-22T15:26:06.577Z,9.90
2018-04-22T15:28:35.145Z,12.67
2018-04-22T15:31:03.640Z,8.27
2018-04-22T15:33:32.018Z,10.23
2018-04-22T15:36:00.379Z,6.93
2018-04-22T15:38:28.737Z,10.27
2018-04-22T15:40:57.128Z,18.73
2018-04-22T15:43:26.266Z,11.07
2018-04-22T15:45:54.986Z,7.00
2018-04-22T15:48:23.405Z,10.27
2018-04-22T15:50:52.932Z,9.17
2018-04-22T15:53:25.981Z,10.80
2018-04-22T15:55:54.621Z,13.40
2018-04-22T15:58:23.564Z,9.63
2018-04-22T16:00:54.129Z,9.23
2018-04-22T16:03:26.759Z,9.43
2018-04-22T16:05:59.592Z,8.57
2018-04-22T16:08:32.136Z,10.57
2018-04-22T16:11:01.673Z,8.57
2018-04-22T16:13:32.348Z,6.93
2018-04-22T16:16:00.548Z,10.43
2018-04-22T16:18:29.110Z,10.17
2018-04-22T16:20:57.749Z,9.80
2018-04-22T16:23:27.314Z,8.27
2018-04-22T16:25:57.047Z,9.93
2018-04-22T16:28:25.640Z,12.23
2018-04-22T16:30:54.401Z,11.07
2018-04-22T16:33:22.847Z,12.07
2018-04-22T16:35:51.349Z,9.77
2018-04-22T16:38:19.816Z,8.77
2018-04-22T16:40:48.426Z,9.00
2018-04-22T16:43:17.454Z,6.80
2018-04-22T16:45:46.750Z,8.53
2018-04-22T16:48:15.750Z,11.60
2018-04-22T16:50:44.035Z,10.53
2018-04-22T16:53:13.140Z,14.23
2018-04-22T16:55:41.596Z,15.83
2018-04-22T16:58:11.000Z,11.23
2018-04-22T17:00:39.711Z,13.87
2018-04-22T17:03:08.737Z,11.73
2018-04-22T17:05:37.189Z,12.90
2018-04-22T17:08:05.584Z,7.00
2018-04-22T17:10:34.115Z,9.90
2018-04-22T17:13:03.329Z,7.10
2018-04-22T17:15:31.590Z,11.67
2018-04-22T17:18:00.481Z,11.07
2018-04-22T17:20:29.932Z,15.50
2018-04-22T17:22:58.208Z,10.27
2018-04-22T17:25:26.565Z,16.30
2018-04-22T17:27:56.353Z,18.07
2018-04-22T17:30:24.549Z,11.60
2018-04-22T17:32:53.003Z,9.47
2018-04-22T17:35:22.058Z,8.87
2018-04-22T17:37:51.312Z,10.93
2018-04-22T17:40:19.727Z,10.37
2018-04-22T17:42:48.584Z,10.07
2018-04-22T17:45:17.864Z,8.97
2018-04-22T17:47:47.260Z,13.53
2018-04-22T17:50:16.254Z,9.47
2018-04-22T17:52:45.779Z,13.13
2018-04-22T17:55:15.136Z,16.97
2018-04-22T17:57:43.338Z,15.60
2018-04-22T18:00:12.709Z,9.50
2018-04-22T18:02:40.985Z,13.07
2018-04-22T18:05:09.335Z,12.37
2018-04-22T18:07:37.904Z,10.90
2018-04-22T18:10:07.489Z,11.67
2018-04-22T18:12:37.128Z,10.10
2018-04-22T18:15:05.623Z,9.53
2018-04-22T18:17:34.505Z,9.47
2018-04-22T18:20:03.262Z,10.63
2018-04-22T18:22:31.486Z,8.80
2018-04-22T18:25:00.045Z,9.20
2018-04-22T18:27:29.194Z,7.63
2018-04-22T18:29:58.241Z,13.43
2018-04-22T18:32:27.625Z,7.40
2018-04-22T18:34:56.014Z,7.03
2018-04-22T18:37:24.609Z,13.37
2018-04-22T18:39:52.795Z,12.87
2018-04-22T18:42:21.259Z,10.00
2018-04-22T18:44:49.810Z,9.77
2018-04-22T18:47:18.172Z,8.13
2018-04-22T18:49:47.546Z,8.90
2018-04-22T18:52:15.887Z,7.13
2018-04-22T18:54:44.241Z,10.13
2018-04-22T18:57:13.042Z,11.67
2018-04-22T18:59:42.401Z,13.90
2018-04-22T19:02:15.199Z,12.77
2018-04-22T19:04:44.886Z,10.27
2018-04-22T19:07:13.719Z,12.07
2018-04-22T19:09:45.697Z,7.67
2018-04-22T19:12:14.557Z,12.33
2018-04-22T19:14:43.904Z,11.33
2018-04-22T19:17:12.723Z,10.67
2018-04-22T19:19:42.053Z,8.27
2018-04-22T19:22:11.723Z,10.73
2018-04-22T19:24:40.659Z,9.03
2018-04-22T19:27:10.122Z,8.90
2018-04-22T19:29:38.560Z,9.53
2018-04-22T19:32:07.934Z,8.03
2018-04-22T19:34:36.387Z,9.33
2018-04-22T19:37:04.787Z,10.23
2018-04-22T19:39:32.947Z,6.60
2018-04-22T19:42:01.994Z,10.27
2018-04-22T19:44:30.792Z,11.17
2018-04-22T19:46:59.601Z,10.23
2018-04-22T19:49:28.118Z,8.73
2018-04-22T19:51:56.703Z,8.93
2018-04-22T19:54:25.576Z,8.00
2018-04-22T19:56:53.991Z,16.07
2018-04-22T19:59:22.863Z,11.20
2018-04-22T20:01:51.307Z,11.33
2018-04-22T20:04:19.722Z,21.50
2018-04-22T20:06:47.893Z,21.87
2018-04-22T20:09:16.167Z,38.97
2018-04-22T20:11:45.744Z,23.60
2018-04-22T20:14:14.925Z,10.03
2018-04-22T20:16:42.985Z,8.27
2018-04-22T20:19:11.219Z,8.33
2018-04-22T20:21:39.652Z,12.03
2018-04-22T20:24:08.850Z,7.20
2018-04-22T20:26:37.009Z,7.97
2018-04-22T20:29:05.323Z,6.73
2018-04-22T20:31:34.434Z,7.43
2018-04-22T20:34:05.165Z,7.80
2018-04-22T20:36:33.553Z,11.50
2018-04-22T20:39:02.276Z,8.67
2018-04-22T20:41:30.878Z,8.70
2018-04-22T20:43:59.711Z,9.53
2018-04-22T20:46:28.059Z,9.03
2018-04-22T20:48:56.467Z,9.47
2018-04-22T20:51:24.712Z,10.00
2018-04-22T20:53:53.893Z,10.50
2018-04-22T20:56:22.690Z,10.67
2018-04-22T20:58:52.817Z,14.33
2018-04-22T21:01:21.276Z,9.73
2018-04-22T21:03:50.079Z,7.03
2018-04-22T21:06:18.435Z,8.00
2018-04-22T21:08:46.891Z,7.83
2018-04-22T21:11:15.856Z,7.97
2018-04-22T21:13:44.202Z,13.40
2018-04-22T21:16:14.253Z,12.57
2018-04-22T21:18:42.601Z,12.10
2018-04-22T21:21:11.618Z,9.73
2018-04-22T21:23:39.940Z,10.57
2018-04-22T21:26:08.337Z,12.10
2018-04-22T21:28:36.628Z,10.27
2018-04-22T21:31:05.863Z,9.17
2018-04-22T21:33:34.125Z,8.80
2018-04-22T21:36:03.366Z,10.43
2018-04-22T21:38:32.394Z,10.07
2018-04-22T21:41:02.063Z,10.17
2018-04-22T21:43:31.355Z,12.67
2018-04-22T21:45:59.578Z,9.67
2018-04-22T21:48:27.865Z,8.43
2018-04-22T21:50:56.039Z,8.83
2018-04-22T21:53:25.428Z,10.27
2018-04-22T21:55:54.597Z,8.37
2018-04-22T21:58:23.665Z,9.73
2018-04-22T22:00:52.117Z,11.57
2018-04-22T22:03:20.664Z,14.07
2018-04-22T22:05:49.023Z,10.57
2018-04-22T22:08:17.222Z,9.83
2018-04-22T22:10:46.533Z,10.60
2018-04-22T22:13:15.651Z,11.23
2018-04-22T22:15:43.900Z,9.97
2018-04-22T22:18:12.943Z,10.70
2018-04-22T22:20:41.247Z,8.63
2018-04-22T22:23:09.571Z,6.83
2018-04-22T22:25:37.971Z,8.73
2018-04-22T22:28:06.366Z,7.10
2018-04-22T22:30:34.625Z,10.63
2018-04-22T22:33:03.038Z,10.27
2018-04-22T22:35:32.231Z,9.20
2018-04-22T22:38:02.497Z,7.83
2018-04-22T22:40:30.883Z,9.90
2018-04-22T22:42:59.257Z,8.53
2018-04-22T22:45:27.701Z,9.77
2018-04-22T22:47:55.873Z,8.90
2018-04-22T22:50:24.233Z,8.70
2018-04-22T22:52:52.626Z,11.27
2018-04-22T22:55:20.711Z,6.57
2018-04-22T22:57:50.011Z,7.20
2018-04-22T23:00:19.751Z,6.73
2018-04-22T23:02:48.523Z,6.90
2018-04-22T23:05:17.496Z,9.17
2018-04-22T23:07:47.426Z,6.17
2018-04-22T23:10:16.871Z,7.37
2018-04-22T23:12:45.186Z,9.20
2018-04-22T23:15:13.568Z,8.53
2018-04-22T23:17:41.953Z,7.63
2018-04-22T23:20:11.164Z,8.87
2018-04-22T23:22:39.660Z,9.27
2018-04-22T23:25:07.857Z,7.53
2018-04-22T23:27:36.605Z,7.90
2018-04-22T23:30:04.981Z,7.13
2018-04-22T23:32:34.377Z,8.83
2018-04-22T23:35:02.592Z,10.67
2018-04-22T23:37:31.483Z,8.07
2018-04-22T23:40:01.204Z,7.63
2018-04-22T23:42:29.593Z,8.97
2018-04-22T23:44:57.811Z,8.47
2018-04-22T23:47:25.884Z,8.33
2018-04-22T23:49:54.115Z,7.37
2018-04-22T23:52:22.347Z,10.63
2018-04-22T23:54:50.643Z,9.47
2018-04-22T23:57:20.081Z,8.87
2018-04-22T23:59:48.470Z,10.00
